ADDS METAR Data INFO
IDs: Format: Raw Decoded Include TAF

Data at: 1517 UTC 21 Feb 2018

KRPJ 211435Z AUTO 36008KT 10SM CLR M04/M07 A3053 RMK AO2 T10381071
KRPJ 211415Z AUTO 36010KT 10SM CLR M04/M07 A3052 RMK AO2 T10371066
KRPJ 211355Z AUTO 35010KT 10SM SCT017 M04/M06 A3050 RMK AO2 T10361064
KRPJ 211335Z AUTO 34009KT 10SM SCT017 M04/M06 A3048 RMK AO2 T10371064
KRPJ 211315Z AUTO 34011KT 10SM SCT017 M04/M06 A3047 RMK AO2 T10371065
KRPJ 211255Z AUTO 35011G15KT 10SM SCT017 M04/M06 A3046 RMK AO2 T10371065
KRPJ 201515Z AUTO 12005G09KT 3/4SM BR OVC003 05/05 A2983 RMK AO2 T00510051
KRPJ 201455Z AUTO 10004KT 1SM BR OVC003 05/05 A2983 RMK AO2 LTG DSNT W P0001 60005 T00500050
KRPJ 201435Z AUTO 10006KT 7SM OVC003 05/05 A2984 RMK AO2 P0001 T00450045
KRPJ 201415Z AUTO 08004KT 7SM OVC003 04/04 A2985 RMK AO2 T00440044
KRPJ 201355Z AUTO 02005KT 7SM OVC003 04/04 A2985 RMK AO2 T00400040
KRPJ 201335Z AUTO 34011KT 5SM -DZ OVC003 05/05 A2986 RMK AO2 T00490049
KRPJ 201315Z AUTO 29008KT 1/2SM FG OVC003 07/07 A2985 RMK AO2 T00710071
KRPJ 201255Z AUTO 00000KT 1/2SM FG SCT001 BKN014 OVC031 07/07 A2981 RMK AO2 P0004 T00690069
KRPJ 201235Z AUTO 19007KT 1/2SM -RA BKN019 OVC031 08/08 A2982 RMK AO2 P0004 T00770077
KRPJ 201210Z AUTO 20009KT 1/2SM RA BKN003 BKN020 OVC033 07/07 A2982 RMK AO2 T00650065
KRPJ 201155Z AUTO 18006KT 1/2SM FG BKN003 OVC036 06/06 A2981 RMK AO2 LTG DSNT S P0007 60053 70088 T00590059 10105 20041
KRPJ 201135Z AUTO 17005KT 3/4SM +RA BKN003 BKN022 OVC040 05/05 A2981 RMK AO2 P0005 T00450045
KRPJ 201115Z AUTO 16004KT 1SM -RA OVC005 04/04 A2981 RMK AO2 P0002 T00440044
KRPJ 201055Z AUTO 00000KT 1 1/4SM -RA OVC007 04/04 A2981 RMK AO2 P0003 T00440044
KRPJ 201035Z AUTO 22004KT 1 1/4SM RA OVC009 05/05 A2981 RMK AO2 P0001 T00470047
KRPJ 201015Z AUTO 20003KT 1SM -RA BKN002 OVC009 05/05 A2979 RMK AO2 P0001 T00500050
KRPJ 200955Z AUTO 14008KT 3/4SM -RA SCT006 OVC100 05/05 A2977 RMK AO2 LTG DSNT S P0005 T00500050
KRPJ 200935Z AUTO 16007KT 3/4SM -RA BKN016 OVC060 05/05 A2980 RMK AO2 P0005 T00470047
KRPJ 200915Z AUTO 21004KT 3/4SM RA SCT007 OVC014 05/05 A2981 RMK AO2 P0001 T00500050
KRPJ 200855Z AUTO 22003KT 3/4SM RA BKN005 OVC011 05/05 A2982 RMK AO2 P0013 60038 T00490049
KRPJ 200835Z AUTO 21003KT 3/4SM -RA OVC005 06/06 A2982 RMK AO2 P0009 T00550055
KRPJ 200815Z AUTO 24006KT 3/4SM RA OVC005 06/06 A2983 RMK AO2 P0003 T00600060
KRPJ 200755Z AUTO 25005KT 1SM -RA BKN010 OVC014 07/07 A2983 RMK AO2 P0019 T00670067
KRPJ 200735Z AUTO 26005KT 3/4SM RA OVC008 07/07 A2982 RMK AO2 P0013 T00710071
KRPJ 200715Z AUTO 27003KT 3/4SM +RA OVC004 07/07 A2981 RMK AO2 LTG DSNT SW P0006 T00720072
KRPJ 200655Z AUTO 28007KT 3/4SM RA OVC004 08/08 A2982 RMK AO2 P0006 T00830083
KRPJ 200635Z AUTO 25009KT 3/4SM RA OVC004 10/10 A2980 RMK AO2 P0002 T00970097
KRPJ 200615Z AUTO 20011KT 1/2SM -RA OVC004 10/10 A2979 RMK AO2 T01020102
KRPJ 200555Z AUTO 19013KT 1 1/4SM -RA BKN004 BKN024 OVC029 10/10 A2978 RMK AO2 P0009 60028 T01010101 10107 20062 401070005
KRPJ 200535Z AUTO 20010KT 1/2SM RA BKN004 OVC012 10/10 A2979 RMK AO2 P0007 T00970097
KRPJ 200515Z AUTO 19010KT 1SM +RA BKN004 OVC012 10/10 A2979 RMK AO2 P0002 T00980098
KRPJ 200455Z AUTO 19014KT 3SM -RA SCT022 BKN038 OVC095 11/11 A2979 RMK AO2 LTG DSNT SE P0009 T01060106
KRPJ 200435Z AUTO 18015KT 3SM -RA SCT016 BKN044 OVC060 11/11 A2979 RMK AO2 LTG DSNT S P0004 T01050105
KRPJ 200415Z AUTO 18016G20KT 2SM -RA SCT018 BKN028 OVC065 11/11 A2979 RMK AO2 LTG DSNT E AND SE P0002 T01050105
KRPJ 200355Z AUTO 17013KT 1/4SM RA BKN009 OVC034 09/09 A2977 RMK AO2 LTG DSNT SE AND SW P0008 T00940094
KRPJ 200335Z AUTO 18012KT 1/4SM RA OVC007 09/09 A2979 RMK AO2 LTG DSNT SE THRU SW P0004 T00860086